Archival Weather

Fukuoka

Fukuoka, Japan (RJFF)

Report from: Tuesday, August 16, 2022 6:30 PM JST
Current time: Sunday, November 27, 2022 7:00 PM JST

Current weather
Weather history
Weather forecast

Present weatherRain showers, light thunderstorm with rain
Temperature27.0°C (80.6°F)
Heat index30.6°C (87.0°F)
Dew point25.0°C (77.0°F)
Winds 8 kts (4.1 m/s, 9.2 mph) Southeast (140°)
Visibility6.2 mi. (10 km)
Clouds Few clouds 200 ft. (61 m)
Few clouds with towering cumulus 3,000 ft. (914 m)
Scattered clouds 4,000 ft. (1,219 m)
Ceiling: Broken clouds 4,500 ft. (1,372 m)
Altimeter29.71 in.Hg (1006 mB)
Relative humidity89 %
Density altitude2,051 ft. (625 m)
Flight conditions Visual Meteorological Conditions
Raw dataRJFF 160930Z 14008KT 9999 SHRA FEW002 FEW030TCU SCT040 BKN045 27/25 Q1006 TEMPO 4000 -TSRA BR
An error has occurred. This application may no longer respond until reloaded. Reload 🗙